Menu Close Menu
Station Historical Data
Daily Summary for January 6, 2017 Units:  Metric    English   Both
« Previous Day
Next Day »
Daily Weekly Monthly Yearly Custom
  High: Low: Average:
Temperature: -1.4 °C -2 °C -1.6 °C
Dew Point: -2.9 °C -3.6 °C -3.1 °C
Humidity: 90% 89% 89%
Wind Speed: 7.4km/h 0km/h 1.8km/h
Wind Gust: 7.4km/h - -
Wind- - SSE
Pressure: 1019.2 hPa 1018.2 hPa -
Precipitation: 0 mm    
Historical Graphs
 
 
Tabular Data for January 6, 2017
Time Temperature Dew Point Pressure Wind Wind Speed Wind Gust Humidity Rainfall Rate (Hourly) solar Conditions
20:48 -1.6 °C -3.1 °C 1018.5 hPa ENE 5.6 km/h 5.6 km/h 89% 0 mm 0.0 W/m2
20:49 -1.6 °C -3.1 °C 1018.5 hPa SE 1.9 km/h 1.9 km/h 89% 0 mm 0.0 W/m2
20:50 -1.5 °C -3.1 °C 1018.5 hPa South 7.4 km/h 7.4 km/h 89% 0 mm 0.0 W/m2
20:52 -1.5 °C -3.1 °C 1018.2 hPa WSW 1.9 km/h 1.9 km/h 89% 0 mm 0.0 W/m2
20:57 -1.4 °C -3 °C 1018.2 hPa Calm     89% 0 mm 0.0 W/m2
21:02 -1.4 °C -3 °C 1018.2 hPa East 1.9 km/h 1.9 km/h 89% 0 mm 0.0 W/m2 -RA
21:07 -1.4 °C -3 °C 1018.5 hPa Calm     89% 0 mm 0.0 W/m2 -RA
21:12 -1.4 °C -3 °C 1018.8 hPa Calm     89% 0 mm 0.0 W/m2 -RA
21:17 -1.4 °C -3 °C 1018.8 hPa ESE 1.9 km/h 1.9 km/h 89% 0 mm 0.0 W/m2 -RA
21:22 -1.4 °C -3 °C 1018.5 hPa Calm     89% 0 mm 0.0 W/m2 -RA
21:27 -1.4 °C -3 °C 1018.8 hPa WSW 3.2 km/h 3.2 km/h 89% 0 mm 0.0 W/m2 -RA
21:32 -1.4 °C -3 °C 1018.8 hPa Calm     89% 0 mm 0.0 W/m2 -RA
21:37 -1.5 °C -3.1 °C 1018.5 hPa East 1.9 km/h 1.9 km/h 89% 0 mm 0.0 W/m2 -RA
21:42 -1.5 °C -3.1 °C 1018.8 hPa East 1.9 km/h 1.9 km/h 89% 0 mm 0.0 W/m2 -RA
21:47 -1.5 °C -2.9 °C 1019.2 hPa SW 1.9 km/h   90% 0 mm 0.0 W/m2 -RA
21:52 -1.4 °C -2.9 °C 1019.2 hPa SE 1.6 km/h 1.6 km/h 90% 0 mm 0.0 W/m2 -RA
21:57 -1.4 °C -3 °C 1019.2 hPa West 1.9 km/h   89% 0 mm 0.0 W/m2 -RA
22:02 -1.4 °C -2.9 °C 1019.2 hPa Calm     90% 0 mm 0.0 W/m2 -RA
22:07 -1.4 °C -2.9 °C 1019.2 hPa East 1.9 km/h 1.9 km/h 90% 0 mm 0.0 W/m2 -RA
22:12 -1.5 °C -3.1 °C 1019.2 hPa NE 1.9 km/h   89% 0 mm 0.0 W/m2 -RA
22:18 -1.5 °C -2.9 °C 1019.2 hPa Calm     90% 0 mm 0.0 W/m2 -RA
22:23 -1.5 °C -2.9 °C 1019.2 hPa Calm     90% 0 mm 0.0 W/m2 -RA
22:28 -1.6 °C -3.1 °C 1019.2 hPa Calm     89% 0 mm 0.0 W/m2 -RA
22:33 -1.6 °C -3.1 °C 1019.2 hPa ENE 1.9 km/h 1.9 km/h 89% 0 mm 0.0 W/m2 -RA
22:38 -1.5 °C -3.1 °C 1019.2 hPa WSW 5.6 km/h 5.6 km/h 89% 0 mm 0.0 W/m2 -RA
22:43 -1.5 °C -3.1 °C 1019.2 hPa SW 1.9 km/h 1.9 km/h 89% 0 mm 0.0 W/m2 -RA
22:48 -1.6 °C -3.1 °C 1018.8 hPa SSE 1.9 km/h 1.9 km/h 89% 0 mm 0.0 W/m2 -RA
22:53 -1.6 °C -3.2 °C 1018.5 hPa West 1.9 km/h   89% 0 mm 0.0 W/m2 -RA
22:58 -1.6 °C -3.2 °C 1018.5 hPa East 1.9 km/h 1.9 km/h 89% 0 mm 0.0 W/m2 -RA
23:03 -1.7 °C -3.2 °C 1018.5 hPa Calm     89% 0 mm 0.0 W/m2 -RA
23:08 -1.7 °C -3.2 °C 1018.8 hPa Calm     89% 0 mm 0.0 W/m2 -RA
23:13 -1.7 °C -3.2 °C 1018.5 hPa SSE 1.9 km/h   89% 0 mm 0.0 W/m2 -RA
23:18 -1.8 °C -3.3 °C 1018.2 hPa East 1.9 km/h 1.9 km/h 89% 0 mm 0.0 W/m2 -RA
23:23 -1.8 °C -3.4 °C 1018.8 hPa NW 1.9 km/h 1.9 km/h 89% 0 mm 0.0 W/m2 -RA
23:28 -1.9 °C -3.4 °C 1019.2 hPa NNE 1.9 km/h 1.9 km/h 89% 0 mm 0.0 W/m2 -RA
23:33 -1.9 °C -3.4 °C 1019.2 hPa WNW 1.9 km/h 1.9 km/h 89% 0 mm 0.0 W/m2 -RA
23:38 -1.9 °C -3.5 °C 1019.2 hPa East 1.9 km/h 1.9 km/h 89% 0 mm 0.0 W/m2 -RA
23:43 -1.9 °C -3.3 °C 1019.2 hPa NNE 1.9 km/h 1.9 km/h 90% 0 mm 0.0 W/m2 -RA
23:48 -1.9 °C -3.4 °C 1019.2 hPa Calm   0.2 km/h 90% 0 mm 0.0 W/m2 -RA
23:53 -1.9 °C -3.4 °C 1018.5 hPa SSE 1.9 km/h 1.9 km/h 89% 0 mm 0.0 W/m2 -RA
23:58 -2 °C -3.6 °C 1019.2 hPa NE 7.4 km/h 7.4 km/h 89% 0 mm 0.0 W/m2 -RA
Piedmont Bend
Compliments of Weather Underground - 4 mb